Carnival Pride — H3VU — position and weather

sailwx.info

Track history (hours):
 
Tides and Currents Weather Stations Pressure Air Temp Water Temp Dewpoint Dewpoint Depression Visibility Wind Speed Wind Dir Waves Ship Positions

Carnival Pride

Operator: Carnival Cruise Lines

Last reported at 2016-Aug-24 21:00 UTC. Time now 2016-Aug-25 02:38 UTC.
Position N 21°54' W 071°24'.

Type: Ship. MMSI: 354215000.

Wind from 060 at 23 knots

Waves 2.0 meters (7 feet), 5 second period

Barometer 1014.0 mb
Air temperature 29.0 ° C
Visibility: greater than 10.8 NM
Dewpoint 21.6 ° C
Water temperature 29.0 ° C

Date/timePositionNaut miles runAvg speedWind from/ knotsBaromVisibWave heightAir tempDewpointWater temp
2016-Aug-24 21:00N 21°54' W 071°24'   060 / 231014.010.8 2.029.021.629.0
2016-Aug-22 07:21N 36°43' W 075°42'1417.8
2016-Aug-22 06:33N 36°53' W 075°54'8416.8
2016-Aug-22 01:33N 38°16' W 076°16'1918.7
2016-Aug-22 00:31N 38°33' W 076°26'1717.1
2016-Aug-21 23:32N 38°50' W 076°24'1616.1
2016-Aug-21 22:33N 39°06' W 076°24'1211.7
2016-Aug-21 21:30N 39°15' W 076°34'2 1.6
2016-Aug-21 20:30N 39°16' W 076°36'0 0.0
2016-Aug-21 19:28N 39°16' W 076°36'0 0.0
2016-Aug-21 18:28N 39°16' W 076°36'0 0.0
2016-Aug-21 17:30N 39°16' W 076°36'0 0.0
2016-Aug-21 16:20N 39°16' W 076°36'0 0.0
2016-Aug-21 15:30N 39°16' W 076°36'0 0.0
2016-Aug-21 13:15N 39°16' W 076°36'1 0.7
2016-Aug-21 12:32N 39°16' W 076°35'9 8.8
2016-Aug-21 11:33N 39°11' W 076°26'1312.9
2016-Aug-21 10:33N 38°58' W 076°23'1716.5
2016-Aug-21 09:33N 38°42' W 076°26'1615.8
2016-Aug-21 08:32N 38°26' W 076°21'1616.7
2016-Aug-21 07:33N 38°10' W 076°14'1918.8
2016-Aug-21 06:33N 37°52' W 076°09'1918.1
2016-Aug-21 05:30N 37°34' W 076°03'1818.9
2016-Aug-21 04:32N 37°16' W 076°08'1717.0
2016-Aug-21 03:33N 36°60' W 076°01'1615.5
2016-Aug-21 02:29N 36°49' W 075°45'62520.1
2016-Aug-19 19:21N 26°49' W 079°10'  
2016-Aug-15 07:07N 36°49' W 075°46'1016.3
2016-Aug-15 06:32N 36°54' W 075°56'4414.9
2016-Aug-15 03:33N 37°38' W 076°07'1816.6
2016-Aug-15 02:28N 37°56' W 076°10'3418.0
2016-Aug-15 00:33N 38°29' W 076°23'1817.6
2016-Aug-14 23:33N 38°46' W 076°26'1717.1
2016-Aug-14 22:33N 39°03' W 076°23'1212.0
2016-Aug-14 21:34N 39°13' W 076°32'  
Track history (hours):
 
Tides and Currents Weather Stations Pressure Air Temp Water Temp Dewpoint Dewpoint Depression Visibility Wind Speed Wind Dir Waves Ship Positions

Carnival Pride

Operator: Carnival Cruise Lines

Last reported at 2016-Aug-24 21:00 UTC. Time now 2016-Aug-25 02:38 UTC.
Position N 21°54' W 071°24'.

Type: Ship. MMSI: 354215000.

Wind from 060 at 23 knots

Waves 2.0 meters (7 feet), 5 second period

Barometer 1014.0 mb
Air temperature 29.0 ° C
Visibility: greater than 10.8 NM
Dewpoint 21.6 ° C
Water temperature 29.0 ° C

Date/timePositionNaut miles runAvg speedWind from/ knotsBaromVisibWave heightAir tempDewpointWater temp
2016-Aug-24 21:00N 21°54' W 071°24'   060 / 231014.010.8 2.029.021.629.0
2016-Aug-22 07:21N 36°43' W 075°42'1417.8
2016-Aug-22 06:33N 36°53' W 075°54'8416.8
2016-Aug-22 01:33N 38°16' W 076°16'1918.7
2016-Aug-22 00:31N 38°33' W 076°26'1717.1
2016-Aug-21 23:32N 38°50' W 076°24'1616.1
2016-Aug-21 22:33N 39°06' W 076°24'1211.7
2016-Aug-21 21:30N 39°15' W 076°34'2 1.6
2016-Aug-21 20:30N 39°16' W 076°36'0 0.0
2016-Aug-21 19:28N 39°16' W 076°36'0 0.0
2016-Aug-21 18:28N 39°16' W 076°36'0 0.0
2016-Aug-21 17:30N 39°16' W 076°36'0 0.0
2016-Aug-21 16:20N 39°16' W 076°36'0 0.0
2016-Aug-21 15:30N 39°16' W 076°36'0 0.0
2016-Aug-21 13:15N 39°16' W 076°36'1 0.7
2016-Aug-21 12:32N 39°16' W 076°35'9 8.8
2016-Aug-21 11:33N 39°11' W 076°26'1312.9
2016-Aug-21 10:33N 38°58' W 076°23'1716.5
2016-Aug-21 09:33N 38°42' W 076°26'1615.8
2016-Aug-21 08:32N 38°26' W 076°21'1616.7
2016-Aug-21 07:33N 38°10' W 076°14'1918.8
2016-Aug-21 06:33N 37°52' W 076°09'1918.1
2016-Aug-21 05:30N 37°34' W 076°03'1818.9
2016-Aug-21 04:32N 37°16' W 076°08'1717.0
2016-Aug-21 03:33N 36°60' W 076°01'1615.5
2016-Aug-21 02:29N 36°49' W 075°45'62520.1
2016-Aug-19 19:21N 26°49' W 079°10'  
2016-Aug-15 07:07N 36°49' W 075°46'1016.3
2016-Aug-15 06:32N 36°54' W 075°56'4414.9
2016-Aug-15 03:33N 37°38' W 076°07'1816.6
2016-Aug-15 02:28N 37°56' W 076°10'3418.0
2016-Aug-15 00:33N 38°29' W 076°23'1817.6
2016-Aug-14 23:33N 38°46' W 076°26'1717.1
2016-Aug-14 22:33N 39°03' W 076°23'1212.0
2016-Aug-14 21:34N 39°13' W 076°32'  

Dump ship's entire track history